Time;durP1;ratioP1;P1;durP2;ratioP2;P2;SDS_P1;SDS_P2;PMS_P1;PMS_P2;Temp;Humidity;BMP_temperature;BMP_pressure;BME280_temperature;BME280_humidity;BME280_pressure;Samples;Min_cycle;Max_cycle;Signal;HPM_P1;HPM_P2
2022/08/11 00:00:25;;;;;;;;;;;;;;;24.20;54.88;102042.94;1030854;28;1902;-66
2022/08/11 00:01:16;;;;;;;;;;;;;;;24.20;55.47;102040.22;1030628;28;634;-66
2022/08/11 00:02:06;;;;;;;;;;;;;;;24.19;54.98;102042.09;1030509;28;622;-66
2022/08/11 00:02:57;;;;;;;;;;;;;;;24.18;55.27;102034.94;1030746;28;697;-66
2022/08/11 00:03:47;;;;;;;;;;;;;;;24.15;55.20;102035.28;1030580;28;665;-66
2022/08/11 00:04:38;;;;;;;;;;;;;;;24.15;55.37;102032.56;1030873;28;613;-66
2022/08/11 00:05:28;;;;;;;;;;;;;;;24.18;55.12;102042.28;1030630;28;653;-66
2022/08/11 00:06:18;;;;;;;;;;;;;;;24.15;55.37;102037.16;1030819;28;618;-66
2022/08/11 00:07:09;;;;;;;;;;;;;;;24.15;55.44;102039.88;1031436;28;642;-66
2022/08/11 00:08:00;;;;;;;;;;;;;;;24.13;55.03;102036.44;1031326;28;646;-66
2022/08/11 00:08:50;;;;;;;;;;;;;;;24.14;55.32;102043.59;1031493;28;689;-66
2022/08/11 00:09:40;;;;;;;;;;;;;;;24.13;55.08;102040.03;1031062;28;1089;-67
2022/08/11 00:10:31;;;;;;;;;;;;;;;24.14;55.42;102035.44;1031506;28;638;-67
2022/08/11 00:11:21;;;;;;;;;;;;;;;24.15;55.31;102039.88;1031398;28;630;-67
2022/08/11 00:12:12;;;;;;;;;;;;;;;24.16;55.39;102038.84;1031511;28;635;-67
2022/08/11 00:13:02;;;;;;;;;;;;;;;24.12;55.13;102038.31;1031348;28;704;-67
2022/08/11 00:13:53;;;;;;;;;;;;;;;24.13;55.43;102036.44;1031122;28;658;-67
2022/08/11 00:14:43;;;;;;;;;;;;;;;24.10;55.34;102034.03;1031400;28;662;-67
2022/08/11 00:15:34;;;;;;;;;;;;;;;24.10;55.13;102029.44;1031501;28;614;-67
2022/08/11 00:16:24;;;;;;;;;;;;;;;24.10;55.31;102028.59;1038352;28;1052;-67
2022/08/11 00:17:15;;;;;;;;;;;;;;;24.09;55.44;102038.63;1036082;28;600;-67
2022/08/11 00:18:05;;;;;;;;;;;;;;;24.08;55.25;102034.19;1037267;28;631;-67
2022/08/11 00:18:56;;;;;;;;;;;;;;;24.08;55.10;102028.75;1036161;28;607;-67
2022/08/11 00:19:46;;;;;;;;;;;;;;;24.08;55.15;102036.06;1037229;28;630;-67
2022/08/11 00:20:37;;;;;;;;;;;;;;;24.08;55.18;102042.34;1037159;28;1972;-67
2022/08/11 00:21:27;;;;;;;;;;;;;;;24.09;55.24;102037.78;1037384;28;670;-67
2022/08/11 00:22:18;;;;;;;;;;;;;;;24.07;55.17;102045.25;1037334;28;642;-67
2022/08/11 00:23:08;;;;;;;;;;;;;;;24.08;55.37;102041.50;1036197;28;654;-67
2022/08/11 00:23:58;;;;;;;;;;;;;;;24.09;55.12;102051.38;1037151;28;638;-67
2022/08/11 00:24:49;;;;;;;;;;;;;;;24.08;55.43;102045.09;1037271;28;626;-67
2022/08/11 00:25:39;;;;;;;;;;;;;;;24.06;55.29;102041.66;1037386;28;752;-67
2022/08/11 00:26:30;;;;;;;;;;;;;;;24.05;55.31;102042.66;1037347;28;649;-67
2022/08/11 00:27:20;;;;;;;;;;;;;;;24.03;55.33;102047.41;1037357;28;702;-67
2022/08/11 00:28:11;;;;;;;;;;;;;;;24.05;55.44;102050.00;1037166;28;631;-67
2022/08/11 00:29:01;;;;;;;;;;;;;;;24.05;55.53;102045.41;1037322;28;650;-66
2022/08/11 00:29:51;;;;;;;;;;;;;;;24.03;55.54;102043.84;1037147;28;768;-67
2022/08/11 00:30:42;;;;;;;;;;;;;;;24.04;55.73;102048.28;1037343;28;622;-66
2022/08/11 00:31:32;;;;;;;;;;;;;;;24.04;55.24;102037.38;1037388;28;631;-67
2022/08/11 00:32:23;;;;;;;;;;;;;;;24.02;55.31;102045.72;1037167;28;670;-66
2022/08/11 00:33:13;;;;;;;;;;;;;;;24.04;55.35;102048.28;1037280;28;736;-66
2022/08/11 00:34:04;;;;;;;;;;;;;;;24.02;55.32;102045.72;1035937;28;635;-66
2022/08/11 00:34:54;;;;;;;;;;;;;;;24.01;55.63;102048.59;1036157;28;619;-67
2022/08/11 00:35:45;;;;;;;;;;;;;;;24.01;55.49;102038.53;1035986;28;659;-66
2022/08/11 00:36:35;;;;;;;;;;;;;;;24.01;55.68;102048.59;1037211;28;615;-67
2022/08/11 00:37:25;;;;;;;;;;;;;;;24.00;55.42;102047.75;1037285;28;627;-66
2022/08/11 00:38:16;;;;;;;;;;;;;;;24.01;55.62;102043.13;1036295;28;698;-66
2022/08/11 00:39:06;;;;;;;;;;;;;;;23.99;55.73;102039.75;1036406;28;701;-67
2022/08/11 00:39:57;;;;;;;;;;;;;;;23.98;55.55;102036.16;1037788;28;685;-67
2022/08/11 00:40:47;;;;;;;;;;;;;;;23.96;55.88;102040.91;1037144;28;1886;-67
2022/08/11 00:41:38;;;;;;;;;;;;;;;23.97;55.49;102041.78;1037198;28;614;-67
2022/08/11 00:42:28;;;;;;;;;;;;;;;23.96;55.42;102046.34;1036361;28;666;-66
2022/08/11 00:43:19;;;;;;;;;;;;;;;23.96;55.43;102040.06;1037014;28;662;-67
2022/08/11 00:44:10;;;;;;;;;;;;;;;23.95;55.73;102046.50;1037765;28;665;-66
2022/08/11 00:45:00;;;;;;;;;;;;;;;23.93;55.83;102043.09;1037152;28;633;-67
2022/08/11 00:45:51;;;;;;;;;;;;;;;23.93;55.51;102041.22;1037177;28;615;-66
2022/08/11 00:46:41;;;;;;;;;;;;;;;23.94;55.71;102047.53;1037215;28;693;-66
2022/08/11 00:47:32;;;;;;;;;;;;;;;23.92;55.59;102042.22;1036229;28;671;-67
2022/08/11 00:48:23;;;;;;;;;;;;;;;23.92;55.99;102044.97;1037407;28;643;-66
2022/08/11 00:49:13;;;;;;;;;;;;;;;23.94;55.75;102048.38;1032844;28;717;-68
2022/08/11 00:50:04;;;;;;;;;;;;;;;23.91;55.81;102043.25;1034005;28;686;-66
2022/08/11 00:50:54;;;;;;;;;;;;;;;23.91;55.72;102042.38;1037795;28;729;-66
2022/08/11 00:51:45;;;;;;;;;;;;;;;23.91;55.76;102042.38;1037149;28;677;-67
2022/08/11 00:52:35;;;;;;;;;;;;;;;23.89;55.37;102048.84;1037247;28;720;-67
2022/08/11 00:53:26;;;;;;;;;;;;;;;23.90;55.86;102046.97;1037097;28;705;-67
2022/08/11 00:54:16;;;;;;;;;;;;;;;23.91;55.86;102047.84;1037161;28;669;-66
2022/08/11 00:55:07;;;;;;;;;;;;;;;23.91;55.90;102042.38;1037086;28;625;-67
2022/08/11 00:55:57;;;;;;;;;;;;;;;23.89;55.83;102048.00;1037218;28;627;-66
2022/08/11 00:56:48;;;;;;;;;;;;;;;23.88;55.68;102044.41;1035959;28;631;-66
2022/08/11 00:57:38;;;;;;;;;;;;;;;23.87;55.84;102042.69;1035604;28;702;-67
2022/08/11 00:58:28;;;;;;;;;;;;;;;23.87;55.69;102050.88;1036221;28;694;-67
2022/08/11 00:59:19;;;;;;;;;;;;;;;23.86;55.90;102049.16;1037102;28;625;-66
2022/08/11 01:00:09;;;;;;;;;;;;;;;23.86;55.99;102054.59;1036239;28;646;-67
2022/08/11 01:01:00;;;;;;;;;;;;;;;23.85;55.71;102044.72;1037101;28;638;-66
2022/08/11 01:01:50;;;;;;;;;;;;;;;23.84;56.01;102047.59;1037153;28;678;-67
2022/08/11 01:02:41;;;;;;;;;;;;;;;23.83;55.66;102048.59;1037065;28;678;-66
2022/08/11 01:03:31;;;;;;;;;;;;;;;23.83;55.98;102049.47;1037156;28;656;-67
2022/08/11 01:04:22;;;;;;;;;;;;;;;23.84;56.02;102047.59;1037117;28;842;-67
2022/08/11 01:05:12;;;;;;;;;;;;;;;23.83;55.72;102041.28;1037094;28;622;-67
2022/08/11 01:06:03;;;;;;;;;;;;;;;23.83;55.78;102044.00;1037223;28;689;-67
2022/08/11 01:06:53;;;;;;;;;;;;;;;23.83;55.66;102054.91;1037228;28;645;-67
2022/08/11 01:07:44;;;;;;;;;;;;;;;23.82;55.72;102052.38;1037058;28;634;-67
2022/08/11 01:08:35;;;;;;;;;;;;;;;23.82;56.06;102049.66;1037160;28;630;-67
2022/08/11 01:09:25;;;;;;;;;;;;;;;23.82;55.96;102049.66;1035771;28;1146;-67
2022/08/11 01:10:16;;;;;;;;;;;;;;;23.81;55.94;102048.78;1037018;28;814;-67
2022/08/11 01:11:06;;;;;;;;;;;;;;;23.80;55.72;102052.53;1037074;28;638;-67
2022/08/11 01:11:57;;;;;;;;;;;;;;;23.80;55.68;102049.81;1036675;28;619;-67
2022/08/11 01:12:47;;;;;;;;;;;;;;;23.81;55.75;102047.94;1035955;28;682;-67
2022/08/11 01:13:38;;;;;;;;;;;;;;;23.81;56.04;102054.25;1037112;28;610;-67
2022/08/11 01:14:28;;;;;;;;;;;;;;;23.80;56.18;102044.34;1037131;28;720;-67
2022/08/11 01:15:19;;;;;;;;;;;;;;;23.80;55.88;102049.81;1037020;28;689;-67
2022/08/11 01:16:10;;;;;;;;;;;;;;;23.78;56.12;102037.34;1033437;28;1229;-67
2022/08/11 01:17:00;;;;;;;;;;;;;;;23.77;56.00;102044.66;1034192;28;631;-67
2022/08/11 01:17:51;;;;;;;;;;;;;;;23.77;55.87;102041.94;1033548;28;669;-67
2022/08/11 01:18:42;;;;;;;;;;;;;;;23.78;56.11;102043.66;1032501;28;709;-67
2022/08/11 01:19:32;;;;;;;;;;;;;;;23.75;56.13;102041.25;1034186;28;677;-67
2022/08/11 01:20:23;;;;;;;;;;;;;;;23.75;56.33;102037.66;1033916;28;1969;-66
2022/08/11 01:21:13;;;;;;;;;;;;;;;23.76;55.72;102036.66;1034112;28;677;-68
2022/08/11 01:22:03;;;;;;;;;;;;;;;23.75;56.33;102035.78;1034169;28;666;-68
2022/08/11 01:22:54;;;;;;;;;;;;;;;23.76;56.18;102033.94;1033263;28;622;-66
2022/08/11 01:23:44;;;;;;;;;;;;;;;23.77;55.88;102043.81;1033280;28;622;-66
2022/08/11 01:24:35;;;;;;;;;;;;;;;23.75;56.02;102041.25;1033106;28;630;-66
2022/08/11 01:25:25;;;;;;;;;;;;;;;23.74;56.29;102036.81;1033596;28;774;-66
2022/08/11 01:26:16;;;;;;;;;;;;;;;23.75;56.10;102035.78;1034129;28;756;-67
2022/08/11 01:27:06;;;;;;;;;;;;;;;23.74;55.76;102031.38;1034145;28;618;-67
2022/08/11 01:27:57;;;;;;;;;;;;;;;23.74;55.98;102038.66;1034213;28;634;-66
2022/08/11 01:28:47;;;;;;;;;;;;;;;23.72;56.30;102033.38;1034005;28;686;-67
2022/08/11 01:29:38;;;;;;;;;;;;;;;23.73;56.12;102037.81;1034120;28;679;-66
2022/08/11 01:30:28;;;;;;;;;;;;;;;23.70;55.83;102035.41;1034124;28;665;-67
2022/08/11 01:31:19;;;;;;;;;;;;;;;23.71;56.46;102034.38;1034036;28;666;-66
2022/08/11 01:32:10;;;;;;;;;;;;;;;23.71;55.81;102033.53;1034086;28;638;-67
2022/08/11 01:33:00;;;;;;;;;;;;;;;23.69;56.00;102039.13;1034030;28;615;-66
2022/08/11 01:33:51;;;;;;;;;;;;;;;23.67;55.90;102038.44;1034167;28;705;-66
2022/08/11 01:34:41;;;;;;;;;;;;;;;23.69;56.13;102038.28;1034107;28;622;-66
2022/08/11 01:35:31;;;;;;;;;;;;;;;23.68;56.26;102037.41;1033525;28;685;-66
2022/08/11 01:36:22;;;;;;;;;;;;;;;23.67;56.07;102035.72;1034130;28;610;-66
2022/08/11 01:37:12;;;;;;;;;;;;;;;23.68;56.48;102034.69;1034044;28;658;-67
2022/08/11 01:38:04;;;;;;;;;;;;;;;23.66;56.29;102034.00;1034100;28;526;-66
2022/08/11 01:38:55;;;;;;;;;;;;;;;23.66;56.38;102039.44;1033504;28;630;-66
2022/08/11 01:39:45;;;;;;;;;;;;;;;23.65;56.15;102032.28;1033972;28;654;-66
2022/08/11 01:40:36;;;;;;;;;;;;;;;23.63;56.58;102031.63;1034011;28;1898;-68
2022/08/11 01:44:36;;;;;;;;;;;;;;;23.63;56.47;102034.34;1033952;28;681;-66
2022/08/11 01:44:55;;;;;;;;;;;;;;;23.62;56.49;102031.75;1034099;28;642;-66
2022/08/11 01:45:47;;;;;;;;;;;;;;;23.63;56.50;102028.88;1034039;28;618;-66
2022/08/11 01:46:37;;;;;;;;;;;;;;;23.61;56.62;102030.91;1033189;28;623;-67
2022/08/11 01:48:36;;;;;;;;;;;;;;;23.61;56.28;102024.59;1034503;28;704;-66
2022/08/11 01:49:27;;;;;;;;;;;;;;;23.61;56.21;102028.19;1034045;28;635;-66
2022/08/11 01:50:17;;;;;;;;;;;;;;;23.61;56.01;102028.19;1033259;28;767;-66
2022/08/11 01:51:08;;;;;;;;;;;;;;;23.59;56.39;102027.47;1033207;28;705;-66
2022/08/11 01:51:58;;;;;;;;;;;;;;;23.56;56.62;102033.22;1033536;28;685;-67
2022/08/11 01:52:49;;;;;;;;;;;;;;;23.58;56.25;102030.34;1034007;28;697;-67
2022/08/11 01:53:39;;;;;;;;;;;;;;;23.57;56.47;102026.78;1033960;28;708;-68
2022/08/11 01:54:30;;;;;;;;;;;;;;;23.57;56.60;102026.78;1033992;28;658;-66
2022/08/11 01:55:22;;;;;;;;;;;;;;;23.56;56.58;102035.09;1033952;28;623;-67
2022/08/11 01:56:13;;;;;;;;;;;;;;;23.54;56.13;102037.97;1033113;28;667;-66
2022/08/11 01:57:03;;;;;;;;;;;;;;;23.56;56.52;102033.22;1033241;28;666;-67
2022/08/11 01:57:54;;;;;;;;;;;;;;;23.56;56.20;102033.22;1033969;28;692;-68
2022/08/11 01:58:44;;;;;;;;;;;;;;;23.56;56.28;102033.22;1034578;28;661;-67
2022/08/11 01:59:35;;;;;;;;;;;;;;;23.58;56.15;102035.81;1034006;28;736;-67
2022/08/11 02:00:27;;;;;;;;;;;;;;;23.56;56.17;102040.53;1033930;28;1894;-67
2022/08/11 02:01:17;;;;;;;;;;;;;;;23.55;56.31;102026.06;1034002;28;642;-67
2022/08/11 02:02:07;;;;;;;;;;;;;;;23.53;56.36;102034.38;1033376;28;622;-67
2022/08/11 02:02:58;;;;;;;;;;;;;;;23.54;56.31;102024.38;1034612;28;650;-67
2022/08/11 02:03:48;;;;;;;;;;;;;;;23.51;56.27;102027.34;1033413;28;653;-68
2022/08/11 02:04:41;;;;;;;;;;;;;;;23.51;56.63;102033.69;1034010;28;670;-67
2022/08/11 02:05:31;;;;;;;;;;;;;;;23.52;56.20;102029.97;1033933;28;701;-66
2022/08/11 02:07:31;;;;;;;;;;;;;;;23.50;56.36;102029.22;1033962;28;697;-66
2022/08/11 02:08:21;;;;;;;;;;;;;;;23.50;56.85;102029.22;1034040;28;580;-67
2022/08/11 02:09:12;;;;;;;;;;;;;;;23.50;56.47;102034.66;1034419;28;646;-66
2022/08/11 02:11:29;;;;;;;;;;;;;;;23.49;56.28;102021.22;1033614;28;638;-67
2022/08/11 02:11:31;;;;;;;;;;;;;;;23.47;56.52;102026.81;1033430;28;638;-66
2022/08/11 02:12:21;;;;;;;;;;;;;;;23.47;56.30;102020.50;1033927;28;642;-67
2022/08/11 02:13:12;;;;;;;;;;;;;;;23.48;56.93;102022.22;1033362;28;608;-67
2022/08/11 02:14:02;;;;;;;;;;;;;;;23.48;56.72;102027.66;1033967;28;661;-67
2022/08/11 02:14:53;;;;;;;;;;;;;;;23.47;56.74;102021.38;1033890;28;674;-67
2022/08/11 02:15:43;;;;;;;;;;;;;;;23.48;56.43;102022.22;1033250;28;1213;-67
2022/08/11 02:16:34;;;;;;;;;;;;;;;23.48;56.49;102025.78;1033875;28;646;-67
2022/08/11 02:17:24;;;;;;;;;;;;;;;23.48;56.80;102022.22;1033323;28;615;-67
2022/08/11 02:18:15;;;;;;;;;;;;;;;23.46;56.55;102029.72;1033883;28;626;-67
2022/08/11 02:23:42;;;;;;;;;;;;;;;23.43;56.89;102025.44;1033907;28;670;-68
2022/08/11 02:24:32;;;;;;;;;;;;;;;23.42;56.74;102031.88;1032538;28;646;-67
2022/08/11 02:25:23;;;;;;;;;;;;;;;23.40;56.93;102023.00;1034051;28;673;-67
2022/08/11 02:26:13;;;;;;;;;;;;;;;23.40;56.85;102020.28;1034076;28;642;-67
2022/08/11 02:27:03;;;;;;;;;;;;;;;23.38;56.88;102018.72;1033883;28;646;-67
2022/08/11 02:27:54;;;;;;;;;;;;;;;23.39;56.83;102026.75;1033939;28;702;-67
2022/08/11 02:28:44;;;;;;;;;;;;;;;23.41;56.84;102018.44;1033826;28;638;-67
2022/08/11 02:29:35;;;;;;;;;;;;;;;23.41;56.78;102024.72;1033679;28;694;-67
2022/08/11 02:30:25;;;;;;;;;;;;;;;23.40;56.86;102027.59;1033903;28;713;-67
2022/08/11 02:33:34;;;;;;;;;;;;;;;23.37;56.80;102012.44;1033937;28;618;-67
2022/08/11 02:34:24;;;;;;;;;;;;;;;23.38;56.55;102024.16;1033911;28;662;-67
2022/08/11 02:35:15;;;;;;;;;;;;;;;23.38;56.86;102024.16;1033888;28;733;-67
2022/08/11 02:36:07;;;;;;;;;;;;;;;23.37;56.94;102022.47;1033891;28;622;-67
2022/08/11 02:36:57;;;;;;;;;;;;;;;23.34;56.92;102029.06;1033813;28;700;-67
2022/08/11 02:37:48;;;;;;;;;;;;;;;23.36;56.86;102020.75;1033733;28;637;-67
2022/08/11 02:38:42;;;;;;;;;;;;;;;23.36;57.05;102020.75;1034375;28;693;-67
2022/08/11 02:39:32;;;;;;;;;;;;;;;23.35;56.87;102019.03;1033186;28;710;-66
2022/08/11 02:40:22;;;;;;;;;;;;;;;23.33;56.62;102018.31;1033295;28;743;-68
2022/08/11 02:42:22;;;;;;;;;;;;;;;23.34;57.13;102017.31;1033829;28;686;-67
2022/08/11 02:43:13;;;;;;;;;;;;;;;23.33;56.74;102021.91;1033876;28;669;-67
2022/08/11 02:44:04;;;;;;;;;;;;;;;23.33;57.20;102021.06;1033205;28;666;-70
2022/08/11 02:44:54;;;;;;;;;;;;;;;23.33;56.56;102012.88;1033773;28;598;-66
2022/08/11 02:45:46;;;;;;;;;;;;;;;23.34;57.10;102025.47;1033783;28;670;-67
2022/08/11 02:46:36;;;;;;;;;;;;;;;23.32;57.22;102022.91;1033793;28;601;-67
2022/08/11 02:47:26;;;;;;;;;;;;;;;23.31;56.58;102020.34;1033716;28;630;-67
2022/08/11 02:50:35;;;;;;;;;;;;;;;23.31;56.73;102012.19;1033785;28;666;-68
2022/08/11 02:51:26;;;;;;;;;;;;;;;23.30;56.67;102010.47;1033838;28;771;-68
2022/08/11 02:52:16;;;;;;;;;;;;;;;23.30;57.17;102010.47;1033741;28;673;-68
2022/08/11 02:53:07;;;;;;;;;;;;;;;23.29;56.85;102020.50;1033797;28;689;-68
2022/08/11 02:53:57;;;;;;;;;;;;;;;23.29;56.69;102014.22;1033153;28;618;-67
2022/08/11 02:54:47;;;;;;;;;;;;;;;23.27;56.80;102008.94;1033748;28;689;-67
2022/08/11 02:55:38;;;;;;;;;;;;;;;23.26;57.22;102001.78;1033768;28;630;-67
2022/08/11 02:56:28;;;;;;;;;;;;;;;23.28;56.71;102015.22;1033235;28;626;-67
2022/08/11 02:57:19;;;;;;;;;;;;;;;23.26;56.90;102006.38;1033787;28;637;-67
2022/08/11 02:58:09;;;;;;;;;;;;;;;23.26;56.84;102003.66;1034265;28;603;-67
2022/08/11 03:00:09;;;;;;;;;;;;;;;23.23;57.07;102014.84;1033727;28;812;-67
2022/08/11 03:00:59;;;;;;;;;;;;;;;23.21;56.81;102006.81;1033323;28;661;-68
2022/08/11 03:01:51;;;;;;;;;;;;;;;23.21;57.26;102004.09;1033638;28;744;-67
2022/08/11 03:02:42;;;;;;;;;;;;;;;23.23;57.01;102007.53;1032879;28;655;-67
2022/08/11 03:03:32;;;;;;;;;;;;;;;23.24;57.33;102003.81;1032929;28;673;-67
2022/08/11 03:04:23;;;;;;;;;;;;;;;23.23;56.89;102006.66;1032628;28;686;-67
2022/08/11 03:05:16;;;;;;;;;;;;;;;23.22;56.94;102003.09;1033182;28;645;-67
2022/08/11 03:06:06;;;;;;;;;;;;;;;23.22;57.19;102007.69;1033791;28;676;-67
2022/08/11 03:06:57;;;;;;;;;;;;;;;23.22;57.24;102007.69;1033686;28;633;-67
2022/08/11 03:07:51;;;;;;;;;;;;;;;23.22;57.32;102010.41;1033707;28;645;-67
2022/08/11 03:08:50;;;;;;;;;;;;;;;23.23;57.33;102012.13;1032825;28;717;-67
2022/08/11 03:09:40;;;;;;;;;;;;;;;23.20;57.11;102005.97;1032729;28;1278;-67
2022/08/11 03:10:30;;;;;;;;;;;;;;;23.22;57.13;102003.09;1032661;28;724;-67
2022/08/11 03:17:07;;;;;;;;;;;;;;;23.17;56.92;102006.28;1037135;28;573;-67
2022/08/11 03:17:57;;;;;;;;;;;;;;;23.18;56.93;102002.53;1036625;28;670;-67
2022/08/11 03:18:47;;;;;;;;;;;;;;;23.17;57.00;102003.53;1036662;28;665;-67
2022/08/11 03:19:38;;;;;;;;;;;;;;;23.17;57.25;102006.28;1036649;28;623;-67
2022/08/11 03:20:28;;;;;;;;;;;;;;;23.16;57.18;101999.13;1036520;28;1910;-67
2022/08/11 03:21:19;;;;;;;;;;;;;;;23.16;57.02;102000.97;1036685;28;740;-67
2022/08/11 03:22:09;;;;;;;;;;;;;;;23.15;57.29;102002.84;1036561;28;614;-67
2022/08/11 03:23:01;;;;;;;;;;;;;;;23.15;57.03;102000.13;1036670;28;634;-67
2022/08/11 03:23:51;;;;;;;;;;;;;;;23.15;57.35;102005.56;1037198;28;724;-67
2022/08/11 03:24:42;;;;;;;;;;;;;;;23.15;57.01;102000.13;1036506;28;627;-67
2022/08/11 03:25:33;;;;;;;;;;;;;;;23.15;57.42;102002.00;1036506;28;674;-67
2022/08/11 03:26:23;;;;;;;;;;;;;;;23.16;57.09;102001.84;1036924;28;748;-67
2022/08/11 03:27:14;;;;;;;;;;;;;;;23.14;57.14;102006.56;1037435;28;771;-67
2022/08/11 03:28:04;;;;;;;;;;;;;;;23.14;57.35;101994.84;1037236;28;634;-67
2022/08/11 03:28:55;;;;;;;;;;;;;;;23.12;57.48;102002.28;1036668;28;630;-67
2022/08/11 03:29:45;;;;;;;;;;;;;;;23.12;57.53;101997.72;1036604;28;704;-68
2022/08/11 03:30:36;;;;;;;;;;;;;;;23.12;57.46;102003.16;1036651;28;725;-67
2022/08/11 03:31:26;;;;;;;;;;;;;;;23.12;57.24;102003.16;1036703;28;1013;-67
2022/08/11 03:32:16;;;;;;;;;;;;;;;23.12;57.09;102002.28;1036891;28;670;-67
2022/08/11 03:34:16;;;;;;;;;;;;;;;23.09;57.14;102000.75;1037235;28;646;-67
2022/08/11 03:35:06;;;;;;;;;;;;;;;23.09;57.46;102006.19;1036567;28;630;-67
2022/08/11 03:35:57;;;;;;;;;;;;;;;23.09;57.18;101998.03;1036571;28;689;-67
2022/08/11 03:36:47;;;;;;;;;;;;;;;23.08;57.43;102001.75;1036807;28;638;-67
2022/08/11 03:37:50;;;;;;;;;;;;;;;23.08;57.13;101995.47;1037381;28;634;-67
2022/08/11 03:38:42;;;;;;;;;;;;;;;23.07;57.24;101994.63;1037144;28;658;-67
2022/08/11 03:39:32;;;;;;;;;;;;;;;23.07;57.12;102000.06;1036562;28;634;-67
2022/08/11 03:41:44;;;;;;;;;;;;;;;23.06;57.25;101998.34;1036741;28;662;-68
2022/08/11 03:42:35;;;;;;;;;;;;;;;23.08;57.34;102003.63;1036604;28;767;-67
2022/08/11 03:43:28;;;;;;;;;;;;;;;23.06;57.61;101998.34;1036535;28;626;-67
2022/08/11 03:44:19;;;;;;;;;;;;;;;23.04;57.34;101994.91;1036407;28;677;-67
2022/08/11 03:45:09;;;;;;;;;;;;;;;23.06;57.08;102001.06;1036555;28;638;-67
2022/08/11 03:46:00;;;;;;;;;;;;;;;23.05;57.26;102002.06;1036583;28;706;-67
2022/08/11 03:46:50;;;;;;;;;;;;;;;23.05;57.16;101996.63;1036525;28;626;-68
2022/08/11 03:47:40;;;;;;;;;;;;;;;23.05;57.11;102001.22;1036776;28;674;-67
2022/08/11 03:48:31;;;;;;;;;;;;;;;23.05;57.52;101996.63;1037394;28;697;-67
2022/08/11 03:49:21;;;;;;;;;;;;;;;23.03;57.28;101997.78;1037324;28;705;-67
2022/08/11 03:50:13;;;;;;;;;;;;;;;23.03;57.51;102006.78;1036506;28;654;-67
2022/08/11 03:51:03;;;;;;;;;;;;;;;23.02;57.62;101996.94;1037086;28;635;-67
2022/08/11 03:51:54;;;;;;;;;;;;;;;23.02;57.13;102002.38;1036795;28;709;-67
2022/08/11 03:52:44;;;;;;;;;;;;;;;23.03;57.30;101993.19;1037397;28;705;-67
2022/08/11 03:53:35;;;;;;;;;;;;;;;23.02;57.56;102002.38;1037207;28;641;-67
2022/08/11 03:54:25;;;;;;;;;;;;;;;23.02;57.61;101996.06;1036544;28;670;-67
2022/08/11 03:55:16;;;;;;;;;;;;;;;23.02;57.13;101994.22;1036645;28;626;-67
2022/08/11 03:56:06;;;;;;;;;;;;;;;23.02;57.50;102004.22;1036521;28;633;-67
2022/08/11 03:56:57;;;;;;;;;;;;;;;23.00;57.25;102001.66;1036566;28;638;-66
2022/08/11 03:57:47;;;;;;;;;;;;;;;23.00;57.23;101996.22;1036432;28;638;-66
2022/08/11 03:58:38;;;;;;;;;;;;;;;22.98;57.14;101989.22;1036514;28;646;-67
2022/08/11 03:59:29;;;;;;;;;;;;;;;22.99;57.72;101997.22;1037084;28;698;-66
2022/08/11 04:00:19;;;;;;;;;;;;;;;22.99;57.78;101997.22;1037022;28;661;-66
2022/08/11 04:01:10;;;;;;;;;;;;;;;22.98;57.29;102000.09;1036541;28;858;-66
2022/08/11 04:02:00;;;;;;;;;;;;;;;22.98;57.22;102000.09;1036519;28;623;-67
2022/08/11 04:02:50;;;;;;;;;;;;;;;22.96;57.25;101997.53;1036442;28;678;-66
2022/08/11 04:03:42;;;;;;;;;;;;;;;22.96;57.39;102000.25;1036484;28;901;-66
2022/08/11 04:04:32;;;;;;;;;;;;;;;22.96;57.26;101988.50;1037052;28;800;-68
2022/08/11 04:05:23;;;;;;;;;;;;;;;22.96;57.73;101989.38;1037099;28;697;-68
2022/08/11 04:06:14;;;;;;;;;;;;;;;22.96;57.62;101994.81;1036575;28;675;-67
2022/08/11 04:07:04;;;;;;;;;;;;;;;22.95;57.62;101990.38;1036395;28;638;-68
2022/08/11 04:07:54;;;;;;;;;;;;;;;22.94;57.49;101998.69;1037074;28;693;-68
2022/08/11 04:08:45;;;;;;;;;;;;;;;22.94;57.42;101996.81;1036480;28;662;-68
2022/08/11 04:09:35;;;;;;;;;;;;;;;22.96;57.38;101988.50;1036331;28;1142;-68
2022/08/11 04:10:26;;;;;;;;;;;;;;;22.95;57.51;101989.53;1036718;28;672;-68
2022/08/11 04:11:16;;;;;;;;;;;;;;;22.94;57.37;101988.66;1035549;28;838;-67
2022/08/11 04:12:07;;;;;;;;;;;;;;;22.93;57.52;101988.84;1035791;28;713;-67
2022/08/11 04:12:57;;;;;;;;;;;;;;;22.92;57.44;101989.84;1037087;28;690;-68
2022/08/11 04:13:47;;;;;;;;;;;;;;;22.93;57.72;101997.00;1036467;28;626;-67
2022/08/11 04:16:00;;;;;;;;;;;;;;;22.93;57.35;101988.84;1037030;28;1213;-67
2022/08/11 04:16:52;;;;;;;;;;;;;;;22.92;57.83;101992.56;1033462;28;635;-68
2022/08/11 04:17:42;;;;;;;;;;;;;;;22.90;57.50;101994.56;1033587;28;678;-68
2022/08/11 04:18:32;;;;;;;;;;;;;;;22.91;57.62;101993.56;1033863;28;677;-68
2022/08/11 04:19:23;;;;;;;;;;;;;;;22.91;57.46;101994.44;1029230;28;772;-68
2022/08/11 04:20:14;;;;;;;;;;;;;;;22.90;57.62;101997.28;1028818;28;611;-67
2022/08/11 04:21:04;;;;;;;;;;;;;;;22.89;57.74;101991.00;1034723;28;649;-67
2022/08/11 04:21:55;;;;;;;;;;;;;;;22.89;57.50;101993.72;1034044;28;697;-68
2022/08/11 04:22:45;;;;;;;;;;;;;;;22.90;57.62;101991.84;1034202;28;614;-67
2022/08/11 04:23:35;;;;;;;;;;;;;;;22.87;57.67;101987.56;1034156;28;728;-68
2022/08/11 04:24:26;;;;;;;;;;;;;;;22.88;57.68;101988.44;1034248;28;748;-68
2022/08/11 04:25:17;;;;;;;;;;;;;;;22.87;57.65;101986.72;1033526;28;657;-68
2022/08/11 04:26:07;;;;;;;;;;;;;;;22.88;57.40;101983.00;1034139;28;752;-68
2022/08/11 04:26:57;;;;;;;;;;;;;;;22.86;57.57;101985.88;1034060;28;634;-68
2022/08/11 04:27:48;;;;;;;;;;;;;;;22.87;57.52;101984.84;1033947;28;630;-68
2022/08/11 04:28:38;;;;;;;;;;;;;;;22.86;57.40;101985.88;1034162;28;648;-67
2022/08/11 04:29:29;;;;;;;;;;;;;;;22.85;57.94;101986.88;1034073;28;674;-67
2022/08/11 04:30:19;;;;;;;;;;;;;;;22.85;57.47;101985.00;1034223;28;697;-68
2022/08/11 04:31:09;;;;;;;;;;;;;;;22.87;57.48;101984.84;1034041;28;653;-68
2022/08/11 04:32:00;;;;;;;;;;;;;;;22.85;57.87;101989.59;1034188;28;849;-68
2022/08/11 04:32:51;;;;;;;;;;;;;;;22.85;57.55;101987.72;1033490;28;671;-68
2022/08/11 04:33:41;;;;;;;;;;;;;;;22.83;57.87;101988.88;1034135;28;654;-68
2022/08/11 04:34:31;;;;;;;;;;;;;;;22.84;57.81;101988.72;1034084;28;710;-68
2022/08/11 04:35:22;;;;;;;;;;;;;;;22.85;58.07;101995.03;1034286;28;610;-69
2022/08/11 04:36:13;;;;;;;;;;;;;;;22.83;57.84;101980.72;1033949;28;649;-67
2022/08/11 04:38:12;;;;;;;;;;;;;;;22.83;57.69;101988.88;1033452;28;697;-68
2022/08/11 04:39:03;;;;;;;;;;;;;;;22.82;57.84;101982.59;1034004;28;677;-68
2022/08/11 04:39:53;;;;;;;;;;;;;;;22.82;57.71;101987.16;1034154;28;725;-67
2022/08/11 04:40:43;;;;;;;;;;;;;;;22.80;57.97;101981.03;1034021;28;1989;-68
2022/08/11 04:41:34;;;;;;;;;;;;;;;22.83;57.76;101983.44;1034268;28;789;-67
2022/08/11 04:43:34;;;;;;;;;;;;;;;22.79;57.67;101990.19;1033509;28;653;-68
2022/08/11 04:44:24;;;;;;;;;;;;;;;22.79;58.06;101988.31;1034140;28;692;-68
2022/08/11 04:45:15;;;;;;;;;;;;;;;22.79;58.13;101985.59;1034012;28;692;-68
2022/08/11 04:46:06;;;;;;;;;;;;;;;22.80;57.93;101987.31;1033891;28;680;-67
2022/08/11 04:46:56;;;;;;;;;;;;;;;22.78;58.04;101986.59;1033222;28;619;-68
2022/08/11 05:01:40;;;;;;;;;;;;;;;22.73;57.88;101993.50;1034330;28;657;-66
2022/08/11 05:02:30;;;;;;;;;;;;;;;22.73;57.92;101990.78;1034853;28;775;-67
2022/08/11 05:03:21;;;;;;;;;;;;;;;22.74;57.78;101992.50;1034659;28;622;-68
2022/08/11 05:05:30;;;;;;;;;;;;;;;22.73;57.74;101990.78;1034208;28;632;-66
2022/08/11 05:06:20;;;;;;;;;;;;;;;22.73;57.77;101990.78;1034840;28;696;-66
2022/08/11 05:07:11;;;;;;;;;;;;;;;22.72;58.16;101984.47;1034780;28;653;-67
2022/08/11 05:08:01;;;;;;;;;;;;;;;22.73;58.05;101991.63;1034628;28;621;-67
2022/08/11 05:08:51;;;;;;;;;;;;;;;22.74;57.68;101987.06;1033921;28;637;-66
2022/08/11 05:09:42;;;;;;;;;;;;;;;22.73;58.20;101982.63;1034001;28;1218;-66
2022/08/11 05:10:32;;;;;;;;;;;;;;;22.72;57.98;101984.47;1032364;28;631;-67